createdAt,value
2018-04-14T00:02:52.043Z,99.90
2018-04-14T00:07:53.573Z,99.90
2018-04-14T00:12:55.104Z,99.90
2018-04-14T00:17:56.647Z,99.90
2018-04-14T00:22:58.162Z,99.90
2018-04-14T00:28:00.404Z,99.90
2018-04-14T00:33:01.998Z,99.90
2018-04-14T00:38:04.380Z,99.90
2018-04-14T00:43:05.902Z,99.90
2018-04-14T00:48:07.450Z,99.90
2018-04-14T01:09:15.101Z,99.90
2018-04-14T01:14:16.622Z,99.90
2018-04-14T01:19:18.106Z,99.90
2018-04-14T01:24:19.616Z,99.90
2018-04-14T01:29:21.064Z,99.90
2018-04-14T01:34:22.511Z,99.80
2018-04-14T01:39:24.102Z,98.10
2018-04-14T01:44:25.592Z,98.10
2018-04-14T01:49:27.069Z,98.10
2018-04-14T01:54:29.370Z,99.20
2018-04-14T01:59:31.593Z,99.50
2018-04-14T02:04:33.134Z,99.50
2018-04-14T02:09:34.759Z,99.70
2018-04-14T02:14:36.327Z,99.90
2018-04-14T02:19:37.836Z,99.20
2018-04-14T02:24:39.511Z,98.80
2018-04-14T02:29:41.227Z,99.40
2018-04-14T02:34:42.778Z,99.90
2018-04-14T02:39:44.421Z,99.90
2018-04-14T02:44:45.966Z,99.90
2018-04-14T02:49:48.231Z,99.90
2018-04-14T02:54:49.784Z,99.90
2018-04-14T02:59:51.370Z,99.90
2018-04-14T03:04:52.935Z,99.90
2018-04-14T03:09:54.503Z,99.90
2018-04-14T03:14:55.996Z,99.90
2018-04-14T03:19:58.284Z,99.90
2018-04-14T03:25:00.515Z,99.90
2018-04-14T03:30:02.033Z,99.90
2018-04-14T03:35:04.283Z,99.90
2018-04-14T03:40:05.826Z,99.90
2018-04-14T03:45:07.357Z,99.90
2018-04-14T03:50:09.600Z,99.90
2018-04-14T03:55:11.200Z,99.90
2018-04-14T04:00:13.551Z,99.90
2018-04-14T04:05:15.150Z,99.90
2018-04-14T04:10:16.742Z,99.90
2018-04-14T04:15:18.289Z,99.90
2018-04-14T04:20:35.996Z,99.90
2018-04-14T04:25:42.308Z,99.90
2018-04-14T04:30:44.548Z,99.90
2018-04-14T04:35:46.028Z,99.90
2018-04-14T04:40:47.598Z,99.90
2018-04-14T04:45:49.112Z,99.90
2018-04-14T04:50:51.379Z,99.90
2018-04-14T04:55:52.959Z,99.90
2018-04-14T05:00:55.245Z,99.90
2018-04-14T05:05:57.507Z,99.90
2018-04-14T05:10:59.016Z,99.90
2018-04-14T05:16:00.518Z,99.90
2018-04-14T05:21:02.020Z,99.90
2018-04-14T05:26:03.553Z,99.90
2018-04-14T05:31:05.056Z,99.90
2018-04-14T05:36:06.559Z,99.90
2018-04-14T05:41:08.068Z,99.90
2018-04-14T05:46:09.603Z,99.90
2018-04-14T05:51:11.152Z,99.90
2018-04-14T05:56:12.789Z,99.90
2018-04-14T06:01:14.339Z,99.90
2018-04-14T06:06:15.943Z,99.00
2018-04-14T06:11:18.250Z,97.10
2018-04-14T06:16:20.019Z,97.10
2018-04-14T06:21:21.535Z,95.80
2018-04-14T06:26:23.075Z,93.40
2018-04-14T06:31:24.578Z,92.90
2018-04-14T06:36:26.032Z,92.80
2018-04-14T06:41:27.676Z,92.10
2018-04-14T06:46:29.250Z,91.80
2018-04-14T06:51:31.511Z,89.10
2018-04-14T06:56:33.084Z,89.70
2018-04-14T07:01:34.652Z,89.30
2018-04-14T07:06:36.218Z,88.30
2018-04-14T07:11:37.833Z,88.10
2018-04-14T07:16:39.376Z,87.60
2018-04-14T07:21:40.942Z,86.70
2018-04-14T07:26:42.640Z,85.90
2018-04-14T07:31:44.120Z,86.20
2018-04-14T07:36:52.528Z,87.60
2018-04-14T07:41:54.133Z,87.30
2018-04-14T07:46:55.711Z,87.50
2018-04-14T07:51:58.221Z,79.60
2018-04-14T07:56:59.722Z,79.60
2018-04-14T08:02:01.313Z,77.70
2018-04-14T08:07:02.969Z,77.20
2018-04-14T08:12:04.506Z,76.20
2018-04-14T08:17:06.075Z,70.00
2018-04-14T08:22:14.640Z,61.20
2018-04-14T08:27:16.256Z,60.50
2018-04-14T08:32:18.544Z,56.80
2018-04-14T08:37:20.198Z,56.80
2018-04-14T08:42:22.000Z,54.50
2018-04-14T08:47:35.806Z,56.10
2018-04-14T08:58:16.798Z,55.40
2018-04-14T09:03:18.355Z,56.40
2018-04-14T09:08:19.970Z,55.80
2018-04-14T09:13:21.576Z,55.40
2018-04-14T09:18:31.208Z,55.60
2018-04-14T09:23:33.853Z,55.50
2018-04-14T09:28:39.080Z,53.10
2018-04-14T09:33:41.429Z,52.60
2018-04-14T09:38:43.115Z,52.40
2018-04-14T09:43:44.697Z,52.70
2018-04-14T09:48:47.077Z,56.60
2018-04-14T09:53:49.375Z,56.60
2018-04-14T09:58:51.733Z,57.50
2018-04-14T10:03:53.294Z,57.50
2018-04-14T10:08:54.859Z,56.30
2018-04-14T10:13:56.436Z,56.70
2018-04-14T10:18:57.975Z,55.60
2018-04-14T10:23:59.518Z,55.80
2018-04-14T10:29:01.117Z,57.00
2018-04-14T10:34:02.704Z,57.50
2018-04-14T10:39:04.276Z,57.10
2018-04-14T10:44:05.840Z,57.00
2018-04-14T10:49:07.388Z,57.90
2018-04-14T10:54:08.975Z,56.60
2018-04-14T10:59:10.565Z,57.70
2018-04-14T11:04:12.139Z,57.20
2018-04-14T11:09:14.467Z,56.50
2018-04-14T11:14:16.016Z,55.80
2018-04-14T11:19:17.609Z,55.90
2018-04-14T11:24:19.855Z,57.30
2018-04-14T11:29:22.163Z,56.70
2018-04-14T11:34:23.761Z,56.60
2018-04-14T11:39:25.257Z,54.30
2018-04-14T11:44:26.796Z,54.90
2018-04-14T11:49:28.285Z,53.90
2018-04-14T11:54:29.827Z,54.30
2018-04-14T11:59:31.392Z,50.40
2018-04-14T12:04:32.983Z,51.70
2018-04-14T12:09:34.580Z,50.30
2018-04-14T12:14:36.102Z,49.90
2018-04-14T12:19:37.666Z,49.10
2018-04-14T12:24:39.212Z,51.20
2018-04-14T12:29:40.819Z,49.30
2018-04-14T12:34:42.423Z,50.70
2018-04-14T12:39:43.917Z,49.80
2018-04-14T12:44:45.477Z,47.40
2018-04-14T12:49:47.773Z,44.90
2018-04-14T12:54:49.282Z,44.80
2018-04-14T12:59:50.831Z,44.60
2018-04-14T13:04:52.411Z,46.10
2018-04-14T13:09:53.904Z,44.60
2018-04-14T13:14:55.432Z,42.40
2018-04-14T13:19:56.938Z,42.10
2018-04-14T13:24:58.441Z,43.00
2018-04-14T13:29:59.991Z,43.90
2018-04-14T13:35:02.297Z,45.00
2018-04-14T13:40:03.824Z,44.90
2018-04-14T13:45:05.408Z,43.00
2018-04-14T13:50:06.964Z,42.20
2018-04-14T13:55:08.528Z,41.00
2018-04-14T14:00:10.247Z,41.10
2018-04-14T14:05:11.824Z,41.40
2018-04-14T14:10:13.327Z,41.40
2018-04-14T14:15:14.827Z,40.80
2018-04-14T14:20:17.083Z,39.80
2018-04-14T14:25:18.627Z,39.80
2018-04-14T14:30:20.208Z,40.30
2018-04-14T14:35:21.716Z,39.90
2018-04-14T14:40:24.230Z,40.00
2018-04-14T14:45:25.791Z,39.90
2018-04-14T14:50:29.116Z,40.80
2018-04-14T14:55:31.692Z,40.10
2018-04-14T15:00:33.275Z,39.80
2018-04-14T15:05:34.745Z,39.10
2018-04-14T15:10:36.193Z,39.10
2018-04-14T15:15:37.706Z,39.70
2018-04-14T15:20:39.253Z,39.30
2018-04-14T15:25:40.774Z,40.40
2018-04-14T15:30:43.085Z,39.60
2018-04-14T15:35:44.736Z,39.60
2018-04-14T15:40:47.128Z,40.50
2018-04-14T15:45:48.705Z,40.40
2018-04-14T15:50:51.349Z,41.10
2018-04-14T15:55:53.092Z,41.20
2018-04-14T16:00:54.680Z,40.60
2018-04-14T16:05:56.186Z,41.10
2018-04-14T16:10:57.738Z,40.70
2018-04-14T16:15:59.278Z,41.30
2018-04-14T16:21:00.929Z,40.50
2018-04-14T16:26:02.457Z,41.20
2018-04-14T16:31:04.039Z,40.70
2018-04-14T16:36:06.385Z,42.90
2018-04-14T16:41:08.037Z,42.90
2018-04-14T16:46:09.743Z,41.50
2018-04-14T16:51:11.364Z,41.90
2018-04-14T16:56:13.024Z,42.00
2018-04-14T17:01:14.779Z,42.50
2018-04-14T17:06:17.135Z,43.10
2018-04-14T17:11:18.734Z,43.00
2018-04-14T17:16:21.197Z,44.00
2018-04-14T17:21:22.924Z,44.00
2018-04-14T17:26:24.500Z,44.80
2018-04-14T17:31:26.142Z,45.20
2018-04-14T17:36:28.514Z,46.00
2018-04-14T17:41:30.065Z,46.00
2018-04-14T17:46:31.591Z,46.00
2018-04-14T17:51:33.197Z,46.80
2018-04-14T17:56:34.800Z,47.90
2018-04-14T18:01:37.123Z,51.10
2018-04-14T18:06:38.672Z,51.10
2018-04-14T18:11:40.227Z,53.40
2018-04-14T18:16:42.539Z,59.20
2018-04-14T18:21:44.055Z,59.20
2018-04-14T18:26:45.551Z,65.60
2018-04-14T18:31:47.856Z,67.50
2018-04-14T18:36:49.408Z,67.50
2018-04-14T18:41:51.663Z,69.20
2018-04-14T18:46:53.452Z,69.10
2018-04-14T18:51:55.846Z,64.40
2018-04-14T18:56:58.168Z,66.80
2018-04-14T19:01:59.723Z,66.70
2018-04-14T19:07:01.311Z,67.60
2018-04-14T19:12:02.769Z,68.60
2018-04-14T19:17:04.345Z,68.80
2018-04-14T19:22:06.679Z,72.70
2018-04-14T19:27:08.238Z,71.90
2018-04-14T19:32:09.810Z,71.10
2018-04-14T19:37:11.424Z,72.00
2018-04-14T19:42:13.170Z,69.60
2018-04-14T19:47:15.480Z,70.30
2018-04-14T19:52:17.138Z,70.30
2018-04-14T19:57:19.455Z,71.00
2018-04-14T20:02:21.033Z,71.00
2018-04-14T20:07:22.578Z,71.90
2018-04-14T20:12:24.149Z,74.40
2018-04-14T20:17:25.707Z,75.40
2018-04-14T20:22:27.479Z,76.10
2018-04-14T20:27:29.093Z,78.20
2018-04-14T20:32:30.850Z,78.50
2018-04-14T20:37:32.492Z,78.70
2018-04-14T20:42:34.293Z,80.70
2018-04-14T20:47:35.854Z,77.70
2018-04-14T20:52:37.447Z,77.50
2018-04-14T20:57:38.998Z,77.50
2018-04-14T21:02:40.590Z,79.20
2018-04-14T21:07:42.140Z,80.30
2018-04-14T21:12:43.866Z,80.50
2018-04-14T21:17:46.177Z,80.20
2018-04-14T21:22:47.659Z,80.20
2018-04-14T21:27:49.254Z,80.10
2018-04-14T21:32:51.760Z,81.50
2018-04-14T21:37:53.294Z,81.50
2018-04-14T21:42:54.872Z,81.10
2018-04-14T21:47:56.436Z,80.30
2018-04-14T21:52:57.907Z,80.00
2018-04-14T21:57:59.448Z,80.20
2018-04-14T22:03:00.999Z,79.30
2018-04-14T22:08:02.619Z,77.90
2018-04-14T22:13:04.138Z,77.50
2018-04-14T22:18:05.668Z,76.60
2018-04-14T22:23:07.260Z,76.80
2018-04-14T22:28:09.583Z,77.60
2018-04-14T22:33:11.145Z,77.50
2018-04-14T22:38:12.769Z,78.40
2018-04-14T22:43:14.379Z,79.60
2018-04-14T22:48:15.929Z,81.80
2018-04-14T22:53:18.229Z,83.30
2018-04-14T22:58:19.736Z,83.30
2018-04-14T23:03:21.329Z,83.10
2018-04-14T23:08:22.841Z,82.90
2018-04-14T23:13:24.391Z,81.90
2018-04-14T23:18:25.850Z,80.80
2018-04-14T23:23:28.145Z,81.50
2018-04-14T23:28:29.649Z,81.40
2018-04-14T23:33:31.103Z,80.80
2018-04-14T23:38:32.650Z,79.80
2018-04-14T23:43:34.181Z,77.90
2018-04-14T23:48:35.743Z,76.60
2018-04-14T23:53:37.274Z,77.60
2018-04-14T23:58:38.827Z,76.70
